Xunwu, China
Current Conditions -  °F | °C
As of 12:00 PM on Friday 28 Nov 2014 (Local Time) from ZGOW Reporting Station
Broken Clouds Broken Clouds  
Wind Chill: 25°   Ceiling: 3300
Heat Index: 26°   Visibility: 5mi
Dew Point: 21°   Wind: 4mph
Humidity: 78%   Direction: NA
Pressure: 29.97"   Gusts: NA
Location:  24.95°N, 115.65°E
Report Text: ZGOW 280400Z VRB02MPS 8000 BKN033 25/21 Q1015 NOSIG
Loading
Personal Weather Stations






























Interactive Weather Map New forecast layout! Learn more

10-Day Weather Forecast

Advertisements
Track Severe Weather on mobile